Time;durP1;ratioP1;P1;durP2;ratioP2;P2;SDS_P1;SDS_P2;PMS_P1;PMS_P2;Temp;Humidity;BMP_temperature;BMP_pressure;BME280_temperature;BME280_humidity;BME280_pressure;Samples;Min_cycle;Max_cycle;Signal;HPM_P1;HPM_P2
2023/03/28 00:02:15;;;;;;;4.30;1.63;;;0.50;99.90;;;;;;2603649;54;20023;31
2023/03/28 00:05:24;;;;;;;6.53;2.67;;;0.50;99.90;;;;;;2603285;54;20038;31
2023/03/28 00:10:35;;;;;;;7.72;3.25;;;1.00;99.90;;;;;;2719804;39;20548;31
2023/03/28 00:13:12;;;;;;;4.05;2.20;;;1.00;99.90;;;;;;2603298;54;20164;31
2023/03/28 00:15:54;;;;;;;5.05;2.08;;;1.00;99.90;;;;;;2603080;54;20022;31
2023/03/28 00:18:31;;;;;;;3.90;1.80;;;1.00;99.90;;;;;;2621679;46;20023;31
2023/03/28 00:21:11;;;;;;;4.40;1.73;;;1.00;99.90;;;;;;2603327;54;20031;31
2023/03/28 00:23:51;;;;;;;3.35;1.45;;;0.90;99.90;;;;;;2603311;54;20068;31
2023/03/28 00:26:34;;;;;;;3.63;2.17;;;0.90;99.90;;;;;;2603568;54;20052;31
2023/03/28 00:29:10;;;;;;;3.70;2.00;;;0.80;99.90;;;;;;2621440;46;20875;31
2023/03/28 00:31:48;;;;;;;4.10;1.75;;;0.80;99.90;;;;;;2603129;54;20852;31
2023/03/28 00:34:26;;;;;;;2.53;1.50;;;0.80;99.90;;;;;;2621749;46;20568;31
2023/03/28 00:37:04;;;;;;;5.63;1.53;;;0.70;99.90;;;;;;2603011;54;20105;31
2023/03/28 00:39:42;;;;;;;4.87;1.83;;;0.70;99.90;;;;;;2603212;54;20749;31
2023/03/28 00:42:21;;;;;;;4.82;1.88;;;0.70;99.90;;;;;;2603191;54;20026;31
2023/03/28 00:45:00;;;;;;;3.55;1.90;;;0.70;99.90;;;;;;2621781;46;20077;31
2023/03/28 00:47:42;;;;;;;6.65;1.63;;;0.70;99.90;;;;;;2603213;54;20057;31
2023/03/28 00:50:21;;;;;;;3.63;1.95;;;0.60;99.90;;;;;;2604131;46;20042;31
2023/03/28 00:53:00;;;;;;;6.28;2.00;;;0.60;99.90;;;;;;2603453;54;20815;31
2023/03/28 00:55:38;;;;;;;5.85;1.70;;;0.60;99.90;;;;;;2621849;46;20160;31
2023/03/28 00:58:17;;;;;;;6.00;2.10;;;0.70;99.90;;;;;;2603079;54;20749;31
2023/03/28 01:00:53;;;;;;;3.05;1.85;;;0.60;99.90;;;;;;2603179;54;20822;31
2023/03/28 01:03:32;;;;;;;4.68;2.05;;;0.60;99.90;;;;;;2603298;54;20033;31
2023/03/28 01:06:12;;;;;;;7.70;2.45;;;0.60;99.90;;;;;;2603136;54;20045;31
2023/03/28 01:08:49;;;;;;;5.13;1.87;;;0.60;99.90;;;;;;2602976;54;20101;31
2023/03/28 01:11:26;;;;;;;4.03;1.98;;;0.60;99.90;;;;;;2603228;54;20034;31
2023/03/28 01:14:06;;;;;;;7.35;3.10;;;0.60;99.90;;;;;;2621314;47;20969;31
2023/03/28 01:16:46;;;;;;;5.28;2.35;;;0.70;99.90;;;;;;2603153;54;20026;31
2023/03/28 01:19:25;;;;;;;5.85;2.30;;;0.70;99.90;;;;;;2602966;54;20027;31
2023/03/28 01:22:13;;;;;;;4.80;2.40;;;0.80;99.90;;;;;;2621806;47;20858;31
2023/03/28 01:25:09;;;;;;;4.87;2.20;;;0.80;99.90;;;;;;2602985;54;20973;31
2023/03/28 01:27:44;;;;;;;5.90;2.40;;;0.90;99.90;;;;;;2602869;54;20907;31
2023/03/28 01:30:53;;;;;;;5.20;2.60;;;0.90;99.90;;;;;;2603239;54;19934;31
2023/03/28 01:34:40;;;;;;;6.73;2.40;;;0.90;99.90;;;;;;2603369;54;20034;31
2023/03/28 01:37:14;;;;;;;;;;;0.90;99.90;;;;;;2603586;54;20728;31
2023/03/28 01:40:28;;;;;;;5.57;1.90;;;0.90;99.90;;;;;;2603794;54;19985;31
2023/03/28 01:43:18;;;;;;;6.22;2.83;;;0.90;99.90;;;;;;2622293;46;20034;31
2023/03/28 01:45:57;;;;;;;6.07;1.77;;;0.90;99.90;;;;;;2603709;54;20050;31
2023/03/28 01:48:42;;;;;;;3.45;1.88;;;1.00;99.90;;;;;;2603794;54;20277;31
2023/03/28 01:53:49;;;;;;;7.85;2.05;;;1.00;99.90;;;;;;2603948;54;20026;31
2023/03/28 01:56:29;;;;;;;4.15;2.25;;;1.00;99.90;;;;;;2603791;54;20026;31
2023/03/28 01:59:16;;;;;;;7.30;2.30;;;1.10;99.90;;;;;;2603718;54;20874;31
2023/03/28 02:02:11;;;;;;;6.10;2.20;;;1.00;99.90;;;;;;2603746;54;20027;31
2023/03/28 02:04:49;;;;;;;4.43;2.30;;;1.00;99.90;;;;;;2603753;54;20059;31
2023/03/28 02:07:27;;;;;;;5.63;2.75;;;1.00;99.90;;;;;;2603172;54;20038;31
2023/03/28 02:10:31;;;;;;;7.80;2.50;;;1.00;99.90;;;;;;2603687;54;20858;31
2023/03/28 02:13:20;;;;;;;6.65;3.40;;;1.10;99.90;;;;;;2603638;54;20952;31
2023/03/28 02:16:07;;;;;;;6.60;3.15;;;1.10;99.90;;;;;;2702213;39;20453;31
2023/03/28 02:19:14;;;;;;;8.00;3.00;;;1.10;99.90;;;;;;2603438;54;20022;31
2023/03/28 02:22:13;;;;;;;5.60;3.60;;;1.10;99.90;;;;;;2603809;54;20022;31
2023/03/28 02:25:09;;;;;;;5.22;3.80;;;1.10;99.90;;;;;;2603973;54;20087;31
2023/03/28 02:28:12;;;;;;;4.80;4.10;;;1.10;99.90;;;;;;2603703;54;20027;31
2023/03/28 02:31:00;;;;;;;5.35;4.00;;;1.20;99.90;;;;;;2622482;46;20030;31
2023/03/28 02:33:40;;;;;;;7.40;4.00;;;1.10;99.90;;;;;;2603767;54;20086;31
2023/03/28 02:36:32;;;;;;;7.93;4.43;;;1.20;99.90;;;;;;2603568;54;20757;31
2023/03/28 02:39:38;;;;;;;6.47;4.35;;;1.10;99.90;;;;;;2603458;54;20031;31
2023/03/28 02:42:43;;;;;;;10.13;4.22;;;1.20;99.90;;;;;;2603522;54;20026;31
2023/03/28 02:45:41;;;;;;;7.55;4.53;;;1.10;99.90;;;;;;2621944;46;20027;31
2023/03/28 02:48:23;;;;;;;8.23;4.57;;;1.20;99.90;;;;;;2603375;54;20811;31
2023/03/28 02:51:08;;;;;;;7.28;4.68;;;1.10;99.90;;;;;;2602668;54;20081;31
2023/03/28 02:53:47;;;;;;;8.37;4.63;;;1.10;99.90;;;;;;2603828;54;20885;31
2023/03/28 02:56:26;;;;;;;6.90;4.10;;;1.10;99.90;;;;;;2622197;46;20026;31
2023/03/28 02:59:16;;;;;;;8.68;4.40;;;1.10;99.90;;;;;;2702183;39;20492;31
2023/03/28 03:04:26;;;;;;;11.18;4.40;;;1.10;99.90;;;;;;2603541;54;20238;31
2023/03/28 03:07:08;;;;;;;7.32;4.03;;;1.10;99.90;;;;;;2603412;54;20758;31
2023/03/28 03:09:52;;;;;;;5.47;3.72;;;1.10;99.90;;;;;;2603385;54;20741;31
2023/03/28 03:12:31;;;;;;;5.40;3.45;;;1.10;99.90;;;;;;2603503;54;20566;31
2023/03/28 03:15:11;;;;;;;4.85;3.05;;;1.10;99.90;;;;;;2622067;46;20052;31
2023/03/28 03:18:19;;;;;;;4.55;3.55;;;1.10;99.90;;;;;;2603374;54;20026;31
2023/03/28 03:21:00;;;;;;;8.00;3.10;;;1.10;99.90;;;;;;2603252;54;20033;31
2023/03/28 03:23:40;;;;;;;3.92;2.88;;;1.10;99.90;;;;;;2621964;46;20033;31
2023/03/28 03:26:19;;;;;;;4.75;3.25;;;1.10;99.90;;;;;;2603580;54;20049;31
2023/03/28 03:29:08;;;;;;;5.03;2.63;;;1.10;99.90;;;;;;2603694;54;20121;31
2023/03/28 03:31:47;;;;;;;4.85;2.60;;;1.10;99.90;;;;;;2603351;54;20042;31
2023/03/28 03:34:45;;;;;;;4.70;2.00;;;1.10;99.90;;;;;;2621331;46;20063;31
2023/03/28 03:37:21;;;;;;;8.45;2.13;;;1.20;99.90;;;;;;2603572;54;20265;31
2023/03/28 03:40:04;;;;;;;3.97;2.17;;;1.20;99.90;;;;;;2621876;46;20566;31
2023/03/28 03:42:42;;;;;;;5.95;1.95;;;1.20;99.90;;;;;;2701903;39;20495;31
2023/03/28 03:45:20;;;;;;;6.20;2.10;;;1.20;99.90;;;;;;2603132;54;20096;31
2023/03/28 03:47:59;;;;;;;6.03;1.80;;;1.20;99.90;;;;;;2603567;54;20053;31
2023/03/28 03:50:35;;;;;;;4.80;1.70;;;1.20;99.90;;;;;;2621436;46;20048;31
2023/03/28 03:53:21;;;;;;;2.95;1.92;;;1.20;99.90;;;;;;2603501;54;20305;31
2023/03/28 03:56:12;;;;;;;6.30;3.20;;;1.20;99.90;;;;;;2603346;54;20042;31
2023/03/28 03:59:15;;;;;;;4.15;1.40;;;1.20;99.90;;;;;;2603129;54;20026;31
2023/03/28 04:01:56;;;;;;;2.67;1.20;;;1.20;99.90;;;;;;2603384;54;20851;31
2023/03/28 04:04:48;;;;;;;2.40;1.48;;;1.20;99.90;;;;;;2621905;46;20046;31
2023/03/28 04:07:31;;;;;;;5.25;1.35;;;1.20;99.90;;;;;;2603291;54;20924;31
2023/03/28 04:10:12;;;;;;;4.50;1.17;;;1.20;99.90;;;;;;2603239;54;21442;31
2023/03/28 04:12:53;;;;;;;6.88;1.65;;;1.20;99.90;;;;;;2602730;54;20849;31
2023/03/28 04:15:30;;;;;;;4.95;2.25;;;1.10;99.90;;;;;;2603423;54;20030;31
2023/03/28 04:18:28;;;;;;;5.05;2.20;;;1.00;99.90;;;;;;2603533;54;20022;31
2023/03/28 04:21:04;;;;;;;3.63;2.17;;;0.90;99.90;;;;;;2701920;39;20508;31
2023/03/28 04:23:50;;;;;;;2.92;1.33;;;0.90;99.90;;;;;;2603256;54;20905;31
2023/03/28 04:26:38;;;;;;;;;;;0.80;99.90;;;;;;2603589;54;20038;31
2023/03/28 04:29:24;;;;;;;2.85;1.27;;;0.80;99.90;;;;;;2603245;54;20785;31
2023/03/28 04:32:20;;;;;;;4.50;1.10;;;0.80;99.90;;;;;;2603285;54;20056;31
2023/03/28 04:35:15;;;;;;;1.30;0.90;;;0.80;99.90;;;;;;2621736;46;20164;31
2023/03/28 04:37:57;;;;;;;2.97;0.50;;;0.80;99.90;;;;;;2603215;54;20966;31
2023/03/28 04:40:38;;;;;;;3.80;0.80;;;0.80;99.90;;;;;;2603426;54;20869;31
2023/03/28 04:43:40;;;;;;;1.75;0.70;;;0.80;99.90;;;;;;2603189;54;20855;31
2023/03/28 04:46:21;;;;;;;1.88;0.80;;;0.80;99.90;;;;;;2603285;54;20023;31
2023/03/28 04:48:59;;;;;;;3.25;0.70;;;0.80;99.90;;;;;;2603265;54;20033;31
2023/03/28 04:51:37;;;;;;;3.45;1.00;;;0.80;99.90;;;;;;2602417;54;20026;31
2023/03/28 04:54:15;;;;;;;3.65;0.82;;;0.80;99.90;;;;;;2602170;54;20108;31
2023/03/28 04:56:56;;;;;;;2.25;1.00;;;0.80;99.90;;;;;;2603101;54;20053;31
2023/03/28 04:59:46;;;;;;;2.03;0.60;;;0.70;99.90;;;;;;2603147;54;20026;31
2023/03/28 05:02:35;;;;;;;2.35;1.40;;;0.70;99.90;;;;;;2603327;54;21570;31
2023/03/28 05:05:14;;;;;;;2.05;1.27;;;0.60;99.90;;;;;;2701695;39;20375;31
2023/03/28 05:07:52;;;;;;;4.85;1.10;;;0.50;99.90;;;;;;2603148;54;20797;31
2023/03/28 05:10:29;;;;;;;3.50;1.17;;;0.50;99.90;;;;;;2602289;54;20928;31
2023/03/28 05:13:10;;;;;;;1.85;1.20;;;0.50;99.90;;;;;;2603225;54;20831;31
2023/03/28 05:15:50;;;;;;;1.33;0.85;;;0.40;99.90;;;;;;2603064;54;20025;31
2023/03/28 05:19:04;;;;;;;3.50;0.90;;;0.50;99.90;;;;;;2622356;46;21570;31
2023/03/28 05:22:02;;;;;;;3.78;1.33;;;0.50;99.90;;;;;;2622487;46;20022;31
2023/03/28 05:24:38;;;;;;;2.38;1.02;;;0.50;99.90;;;;;;2603086;54;20711;31
2023/03/28 05:27:22;;;;;;;2.70;0.60;;;0.50;99.90;;;;;;2702528;39;21506;31
2023/03/28 05:29:58;;;;;;;2.53;0.73;;;0.60;99.90;;;;;;2603751;54;20078;31
2023/03/28 05:32:33;;;;;;;;;;;0.60;99.90;;;;;;2604135;54;21691;31
2023/03/28 05:35:14;;;;;;;2.58;0.82;;;0.70;99.90;;;;;;2621966;46;20471;31
2023/03/28 05:40:24;;;;;;;2.60;0.70;;;0.70;99.90;;;;;;2603975;54;20026;31
2023/03/28 05:43:00;;;;;;;2.25;0.90;;;0.80;99.90;;;;;;2773797;31;21654;31
2023/03/28 05:45:36;;;;;;;2.67;0.90;;;0.80;96.50;;;;;;2603881;54;20582;31
2023/03/28 05:48:28;;;;;;;3.15;0.80;;;0.70;99.90;;;;;;2603911;54;20027;31
2023/03/28 05:51:04;;;;;;;4.20;0.70;;;0.80;99.00;;;;;;2603868;54;20111;31
2023/03/28 05:53:44;;;;;;;1.30;0.80;;;0.80;98.30;;;;;;2622486;46;20034;31
2023/03/28 05:56:20;;;;;;;1.60;0.90;;;0.90;99.90;;;;;;2603768;54;20076;31
2023/03/28 05:59:00;;;;;;;1.30;0.60;;;1.00;99.90;;;;;;2603741;54;20953;31
2023/03/28 06:01:38;;;;;;;1.52;0.68;;;0.90;99.90;;;;;;2622216;46;20026;31
2023/03/28 06:04:17;;;;;;;1.60;0.90;;;1.00;99.90;;;;;;2603770;54;20026;31
2023/03/28 06:06:53;;;;;;;2.57;1.03;;;0.90;99.90;;;;;;2602835;54;20920;31
2023/03/28 06:09:36;;;;;;;1.90;0.80;;;1.00;99.90;;;;;;2622308;46;20072;31
2023/03/28 06:12:12;;;;;;;2.50;0.73;;;1.00;99.90;;;;;;2603780;54;20934;31
2023/03/28 06:14:55;;;;;;;1.50;0.80;;;1.00;99.90;;;;;;2622103;46;20030;31
2023/03/28 06:17:35;;;;;;;4.72;0.90;;;1.00;99.90;;;;;;2603665;54;20794;31
2023/03/28 06:20:13;;;;;;;2.15;0.70;;;1.10;99.90;;;;;;2622077;46;20023;31
2023/03/28 06:22:51;;;;;;;3.45;0.95;;;1.10;99.90;;;;;;2603548;54;20779;31
2023/03/28 06:25:31;;;;;;;1.40;0.82;;;1.10;99.90;;;;;;2603735;54;20119;31
2023/03/28 06:28:08;;;;;;;1.75;0.77;;;1.10;99.90;;;;;;2603652;54;20839;31
2023/03/28 06:31:03;;;;;;;2.50;0.80;;;1.20;99.90;;;;;;2773849;31;20595;31
2023/03/28 06:33:40;;;;;;;2.03;0.90;;;1.20;99.90;;;;;;2602787;54;20075;31
2023/03/28 06:36:17;;;;;;;4.80;1.10;;;1.20;99.90;;;;;;2603545;54;20822;31
2023/03/28 06:38:54;;;;;;;1.60;0.80;;;1.20;99.90;;;;;;2603558;54;20836;31
2023/03/28 06:41:36;;;;;;;3.90;0.93;;;1.20;99.90;;;;;;2603611;54;20124;31
2023/03/28 06:44:13;;;;;;;2.40;1.00;;;1.20;99.90;;;;;;2603721;54;20043;31
2023/03/28 06:47:21;;;;;;;1.83;1.07;;;1.20;99.90;;;;;;2603680;54;20034;31
2023/03/28 06:49:57;;;;;;;1.70;0.75;;;1.20;99.90;;;;;;2603711;54;21118;31
2023/03/28 06:52:47;;;;;;;3.90;1.23;;;1.20;99.90;;;;;;2603674;54;20018;31
2023/03/28 06:55:25;;;;;;;3.75;1.20;;;1.50;91.60;;;;;;2603503;54;20030;31
2023/03/28 06:58:07;;;;;;;1.30;0.85;;;1.60;99.90;;;;;;2603620;54;20038;31
2023/03/28 07:00:50;;;;;;;2.45;0.77;;;1.50;99.90;;;;;;2603471;54;20961;31
2023/03/28 07:03:44;;;;;;;4.30;0.90;;;1.50;99.90;;;;;;2603611;54;20833;31
2023/03/28 07:06:25;;;;;;;2.10;1.15;;;1.50;99.90;;;;;;2603503;54;20878;31
2023/03/28 07:09:03;;;;;;;1.52;0.88;;;1.50;99.90;;;;;;2720464;39;20552;31
2023/03/28 07:12:02;;;;;;;5.10;1.10;;;1.50;99.90;;;;;;2621950;46;20038;31
2023/03/28 07:14:50;;;;;;;1.90;0.95;;;1.60;99.90;;;;;;2603514;54;20813;31
2023/03/28 07:17:24;;;;;;;;;;;1.70;87.30;;;;;;2603971;54;20038;31
2023/03/28 07:20:00;;;;;;;2.30;0.60;;;1.70;97.40;;;;;;2603545;54;20414;31
2023/03/28 07:22:37;;;;;;;1.60;0.85;;;1.80;99.90;;;;;;2603627;54;20744;31
2023/03/28 07:25:15;;;;;;;2.22;1.00;;;2.00;96.50;;;;;;2621876;46;20906;31
2023/03/28 07:27:57;;;;;;;2.25;1.20;;;2.60;92.30;;;;;;2603367;54;20926;31
2023/03/28 07:33:14;;;;;;;1.73;1.23;;;3.00;65.00;;;;;;2603202;54;20828;31
2023/03/28 07:36:11;;;;;;;2.58;0.90;;;3.40;61.30;;;;;;2603344;54;20033;31
2023/03/28 07:38:48;;;;;;;3.80;1.10;;;3.60;99.90;;;;;;2603179;54;20891;31
2023/03/28 07:41:26;;;;;;;4.50;1.10;;;3.70;6.00;;;;;;2621762;46;20569;31
2023/03/28 07:44:02;;;;;;;;;;;3.90;4.10;;;;;;2602841;54;20809;31
2023/03/28 07:46:39;;;;;;;3.27;1.37;;;4.10;40.60;;;;;;2602550;54;20016;31
2023/03/28 07:49:19;;;;;;;1.65;1.00;;;4.50;59.00;;;;;;2602721;54;20708;31
2023/03/28 07:51:57;;;;;;;1.83;0.93;;;4.90;51.60;;;;;;2603366;54;20790;31
2023/03/28 07:54:32;;;;;;;4.63;1.00;;;4.90;96.30;;;;;;2603452;54;20026;31
2023/03/28 07:57:08;;;;;;;2.35;1.10;;;4.70;99.90;;;;;;2773310;31;20528;31
2023/03/28 08:00:03;;;;;;;2.78;1.20;;;4.40;99.90;;;;;;2603482;54;20057;31
2023/03/28 08:02:48;;;;;;;3.78;0.80;;;4.20;99.90;;;;;;2603312;54;20018;31
2023/03/28 08:05:36;;;;;;;2.55;1.05;;;4.00;99.90;;;;;;2603297;54;20690;31
2023/03/28 08:08:12;;;;;;;0.98;0.77;;;3.80;99.90;;;;;;2701827;39;20433;31
2023/03/28 08:10:49;;;;;;;3.20;0.75;;;3.70;1.00;;;;;;2701841;39;20536;31
2023/03/28 08:13:27;;;;;;;1.70;0.70;;;3.90;1.00;;;;;;2603216;54;20596;31
2023/03/28 08:16:11;;;;;;;1.92;0.98;;;4.00;1.00;;;;;;2603308;54;20584;31
2023/03/28 08:18:47;;;;;;;1.70;1.10;;;4.00;1.00;;;;;;2603270;54;20030;31
2023/03/28 08:21:42;;;;;;;3.45;0.95;;;4.00;1.00;;;;;;2603159;54;20034;31
2023/03/28 08:24:17;;;;;;;2.13;1.02;;;3.90;1.00;;;;;;2603210;54;20038;31
2023/03/28 08:27:17;;;;;;;3.85;1.30;;;3.80;1.00;;;;;;2701598;39;20614;31
2023/03/28 08:29:56;;;;;;;1.88;0.82;;;3.80;1.00;;;;;;2602572;54;20888;31
2023/03/28 08:32:34;;;;;;;0.90;0.55;;;3.70;1.00;;;;;;2612147;46;20022;31
2023/03/28 08:35:11;;;;;;;1.10;0.70;;;3.80;1.00;;;;;;2603104;54;20034;31
2023/03/28 08:37:51;;;;;;;4.00;1.10;;;3.90;1.00;;;;;;2603053;54;20057;31
2023/03/28 08:40:27;;;;;;;1.80;0.60;;;3.90;1.00;;;;;;2603036;54;20471;31
2023/03/28 08:43:25;;;;;;;2.70;0.60;;;3.80;1.00;;;;;;2603088;54;20022;31
2023/03/28 08:46:01;;;;;;;2.10;0.80;;;3.80;1.00;;;;;;2603026;54;20778;31
2023/03/28 08:48:47;;;;;;;;;;;3.80;1.00;;;;;;2621860;46;20037;31
2023/03/28 08:51:25;;;;;;;3.43;1.93;;;4.20;1.00;;;;;;2701857;39;20481;31
2023/03/28 08:53:59;;;;;;;1.38;0.40;;;4.50;3.50;;;;;;2602787;54;21634;31
2023/03/28 08:56:43;;;;;;;1.58;0.60;;;4.80;99.90;;;;;;2603284;54;20023;31
2023/03/28 08:59:19;;;;;;;1.15;0.50;;;4.90;99.90;;;;;;2603285;54;20028;31
2023/03/28 09:01:53;;;;;;;2.45;0.80;;;5.30;99.90;;;;;;2618709;46;20703;31
2023/03/28 09:04:36;;;;;;;3.63;0.75;;;5.60;99.90;;;;;;2603159;54;20026;31
2023/03/28 09:07:26;;;;;;;1.60;1.00;;;5.80;1.00;;;;;;2603016;54;20029;31
2023/03/28 09:10:11;;;;;;;3.22;0.75;;;5.30;1.00;;;;;;2621022;47;20030;31
2023/03/28 09:13:09;;;;;;;3.83;1.52;;;4.90;1.00;;;;;;2603058;54;20558;31
2023/03/28 09:15:54;;;;;;;2.85;0.70;;;4.50;1.00;;;;;;2603095;54;20030;31
2023/03/28 09:18:53;;;;;;;6.03;0.80;;;4.10;1.00;;;;;;2603281;54;20863;31
2023/03/28 09:21:33;;;;;;;1.40;0.50;;;4.30;1.00;;;;;;2603066;54;20026;31
2023/03/28 09:24:29;;;;;;;1.48;0.65;;;4.60;1.00;;;;;;2603048;54;20061;31
2023/03/28 09:27:25;;;;;;;2.47;0.80;;;4.70;1.00;;;;;;2603210;54;20584;31
2023/03/28 09:30:12;;;;;;;2.58;0.80;;;4.00;23.20;;;;;;2602312;54;20863;31
2023/03/28 09:32:51;;;;;;;4.93;1.02;;;3.30;36.80;;;;;;2603072;54;20030;31
2023/03/28 09:35:29;;;;;;;4.53;1.10;;;2.90;53.00;;;;;;2603211;54;20141;31
2023/03/28 09:38:08;;;;;;;3.28;1.27;;;2.50;80.60;;;;;;2602791;54;20863;31
2023/03/28 09:40:46;;;;;;;5.90;2.10;;;2.20;96.00;;;;;;2602857;54;20031;31
2023/03/28 09:43:28;;;;;;;3.53;1.45;;;2.00;99.90;;;;;;2602950;54;20026;31
2023/03/28 09:46:25;;;;;;;3.37;1.63;;;2.00;99.90;;;;;;2602897;54;20170;31
2023/03/28 09:49:40;;;;;;;3.50;1.42;;;2.30;99.90;;;;;;2602990;54;20038;31
2023/03/28 09:54:59;;;;;;;2.42;1.20;;;3.40;99.90;;;;;;2602907;54;21276;31
2023/03/28 09:58:05;;;;;;;2.63;1.33;;;3.70;88.60;;;;;;2783041;31;20031;31
2023/03/28 10:01:02;;;;;;;2.40;1.00;;;3.90;99.90;;;;;;2603535;54;20031;31
2023/03/28 10:04:04;;;;;;;1.55;0.70;;;3.90;99.90;;;;;;2603644;54;20270;31
2023/03/28 10:07:29;;;;;;;2.00;0.50;;;3.90;99.90;;;;;;2603892;54;20033;31
2023/03/28 10:12:59;;;;;;;2.60;1.00;;;4.70;99.90;;;;;;2603809;54;20872;31
2023/03/28 10:16:02;;;;;;;2.08;0.68;;;5.00;99.90;;;;;;2603738;54;20042;31
2023/03/28 10:19:03;;;;;;;1.50;0.57;;;4.80;99.90;;;;;;2603687;54;20032;31
2023/03/28 10:21:46;;;;;;;0.43;0.25;;;4.80;99.90;;;;;;2702252;39;20512;31
2023/03/28 10:24:31;;;;;;;0.60;0.38;;;5.10;99.90;;;;;;2603728;54;20022;31
2023/03/28 10:27:11;;;;;;;3.03;0.73;;;5.30;95.30;;;;;;2603615;54;20076;31
2023/03/28 10:29:49;;;;;;;0.60;0.30;;;5.50;1.00;;;;;;2622080;46;20022;31
2023/03/28 10:32:27;;;;;;;1.85;0.57;;;5.80;1.00;;;;;;2603603;54;20038;31
2023/03/28 10:35:29;;;;;;;1.38;0.40;;;6.10;1.00;;;;;;2603341;54;20880;31
2023/03/28 10:38:32;;;;;;;2.83;0.60;;;6.30;1.00;;;;;;2603431;54;20022;31
2023/03/28 10:41:38;;;;;;;3.60;1.07;;;6.20;1.00;;;;;;2603436;54;19934;31
2023/03/28 10:44:20;;;;;;;2.73;0.63;;;5.90;1.00;;;;;;2622153;46;20026;31
2023/03/28 10:47:10;;;;;;;1.77;0.80;;;5.70;1.00;;;;;;2603613;54;20048;31
2023/03/28 10:50:08;;;;;;;3.78;0.70;;;6.00;1.00;;;;;;2603383;54;20049;31
2023/03/28 10:52:48;;;;;;;0.95;0.57;;;6.20;1.00;;;;;;2603361;54;20022;31
2023/03/28 10:55:35;;;;;;;3.93;1.90;;;6.50;1.00;;;;;;2603358;54;20023;31
2023/03/28 11:01:08;;;;;;;0.80;0.50;;;6.50;1.00;;;;;;2603682;54;20875;31
2023/03/28 11:04:05;;;;;;;1.90;0.70;;;6.30;1.00;;;;;;2603435;54;20047;31
2023/03/28 11:06:42;;;;;;;;;;;6.10;1.00;;;;;;2603557;54;20876;31
2023/03/28 11:09:21;;;;;;;2.40;0.70;;;5.80;1.00;;;;;;2621272;46;20009;31
2023/03/28 11:12:25;;;;;;;0.85;0.30;;;5.40;1.00;;;;;;2603634;54;20485;31
2023/03/28 11:15:09;;;;;;;1.07;0.40;;;5.40;1.00;;;;;;2603320;54;20027;31
2023/03/28 11:18:01;;;;;;;1.95;0.40;;;5.20;1.00;;;;;;2603459;54;20263;31
2023/03/28 11:20:43;;;;;;;;;;;5.20;1.00;;;;;;2603560;54;20574;31
2023/03/28 11:23:47;;;;;;;0.98;0.30;;;5.20;1.00;;;;;;2621930;46;19985;31
2023/03/28 11:26:43;;;;;;;2.05;0.68;;;5.40;99.90;;;;;;2603401;54;20033;31
2023/03/28 11:29:25;;;;;;;0.75;0.40;;;5.50;99.90;;;;;;2603510;54;20905;31
2023/03/28 11:32:22;;;;;;;1.45;0.52;;;5.50;99.90;;;;;;2603309;54;20050;31
2023/03/28 11:35:09;;;;;;;2.17;0.40;;;5.30;70.60;;;;;;2603341;54;20923;31
2023/03/28 11:37:50;;;;;;;2.10;0.73;;;5.10;99.90;;;;;;2701993;39;21342;31
2023/03/28 11:40:30;;;;;;;1.00;0.50;;;5.10;99.90;;;;;;2602576;54;20744;31
2023/03/28 11:43:13;;;;;;;3.50;1.00;;;5.00;1.00;;;;;;2603295;54;20030;31
2023/03/28 11:45:51;;;;;;;2.85;0.55;;;4.70;99.90;;;;;;2603221;54;20031;31
2023/03/28 11:48:34;;;;;;;3.70;0.90;;;4.30;1.00;;;;;;2701568;39;20563;31
2023/03/28 11:51:22;;;;;;;3.33;0.70;;;4.10;1.00;;;;;;2603364;54;20858;31
2023/03/28 11:54:04;;;;;;;1.30;0.40;;;4.00;1.00;;;;;;2603571;54;20018;31
2023/03/28 11:56:47;;;;;;;1.95;0.60;;;4.00;1.00;;;;;;2603342;54;20846;31
2023/03/28 11:59:29;;;;;;;1.95;0.70;;;3.90;1.00;;;;;;2603298;54;20201;31
2023/03/28 12:02:08;;;;;;;1.13;0.60;;;3.80;1.00;;;;;;2603202;54;20023;31
2023/03/28 12:04:47;;;;;;;2.53;0.67;;;3.80;1.00;;;;;;2603148;54;20117;31
2023/03/28 12:07:32;;;;;;;3.60;0.98;;;3.90;1.00;;;;;;2603419;54;20943;31
2023/03/28 12:10:24;;;;;;;1.88;0.60;;;4.10;1.00;;;;;;2603454;54;20061;31
2023/03/28 12:13:03;;;;;;;4.70;0.80;;;4.30;1.00;;;;;;2621817;46;20026;31
2023/03/28 12:15:46;;;;;;;1.77;0.50;;;4.50;1.00;;;;;;2773153;31;20583;31
2023/03/28 12:18:27;;;;;;;1.23;0.50;;;4.70;1.00;;;;;;2602317;54;20030;31
2023/03/28 12:21:07;;;;;;;0.95;0.55;;;4.80;1.00;;;;;;2609882;46;20769;31
2023/03/28 12:24:00;;;;;;;3.75;0.55;;;4.60;1.00;;;;;;2621422;46;20890;31
2023/03/28 12:26:58;;;;;;;1.30;0.65;;;4.50;1.00;;;;;;2603059;54;20022;31
2023/03/28 12:29:36;;;;;;;5.50;0.65;;;4.60;1.00;;;;;;2603263;54;20022;31
2023/03/28 12:32:24;;;;;;;2.78;1.02;;;4.60;1.00;;;;;;2603194;54;20776;31
2023/03/28 12:35:07;;;;;;;3.55;0.90;;;4.60;4.50;;;;;;2603068;54;20018;31
2023/03/28 12:37:59;;;;;;;2.08;0.70;;;4.60;14.80;;;;;;2603046;54;20887;31
2023/03/28 12:40:49;;;;;;;2.50;0.97;;;4.60;1.00;;;;;;2603274;54;20027;31
2023/03/28 12:43:27;;;;;;;8.60;1.30;;;4.50;1.00;;;;;;2603463;54;20057;31
2023/03/28 12:46:06;;;;;;;4.00;0.70;;;4.50;1.00;;;;;;2603115;54;20573;31
2023/03/28 12:48:45;;;;;;;4.50;1.10;;;4.40;1.00;;;;;;2621518;46;20109;31
2023/03/28 12:51:24;;;;;;;3.40;0.75;;;4.40;1.00;;;;;;2701696;39;21362;31
2023/03/28 12:54:04;;;;;;;1.70;0.60;;;4.60;1.00;;;;;;2603298;54;20030;31
2023/03/28 12:56:43;;;;;;;2.78;0.68;;;4.80;1.00;;;;;;2621529;46;20075;31
2023/03/28 12:59:50;;;;;;;3.42;0.93;;;5.00;1.00;;;;;;2603154;54;20871;31
2023/03/28 13:02:43;;;;;;;1.75;0.60;;;5.10;1.00;;;;;;2701433;39;20480;31
2023/03/28 13:05:22;;;;;;;2.55;0.70;;;5.30;1.00;;;;;;2602471;54;20872;31
2023/03/28 13:08:02;;;;;;;3.05;1.05;;;5.40;1.00;;;;;;2621804;46;20864;31
2023/03/28 13:10:43;;;;;;;4.53;1.17;;;5.30;1.00;;;;;;2603125;54;20023;31
2023/03/28 13:13:25;;;;;;;3.30;0.70;;;5.20;99.90;;;;;;2603021;54;20299;31
2023/03/28 13:16:06;;;;;;;3.55;0.98;;;5.20;61.10;;;;;;2602125;54;20901;31
2023/03/28 13:18:50;;;;;;;4.20;1.20;;;5.10;99.90;;;;;;2603044;54;20030;31
2023/03/28 13:21:43;;;;;;;3.30;1.60;;;4.80;1.00;;;;;;2621525;47;20022;31
2023/03/28 13:24:33;;;;;;;3.53;1.30;;;4.30;1.00;;;;;;2602954;54;19986;31
2023/03/28 13:27:16;;;;;;;4.68;1.98;;;3.90;11.60;;;;;;2701227;39;20528;31
2023/03/28 13:29:55;;;;;;;4.13;1.40;;;3.70;34.50;;;;;;2602974;54;20022;31
2023/03/28 13:32:31;;;;;;;1.88;0.80;;;3.60;28.30;;;;;;2603668;54;20035;31
2023/03/28 13:35:31;;;;;;;2.42;1.27;;;3.60;23.50;;;;;;2603667;54;20034;31
2023/03/28 13:38:18;;;;;;;3.90;1.70;;;3.50;19.70;;;;;;2603845;54;20825;31
2023/03/28 13:40:58;;;;;;;3.65;0.90;;;3.40;10.70;;;;;;2604005;54;20907;31
2023/03/28 13:43:41;;;;;;;5.00;1.40;;;3.20;1.00;;;;;;2603881;54;20033;31
2023/03/28 13:46:21;;;;;;;3.08;0.85;;;3.20;1.00;;;;;;2603977;54;20026;31
2023/03/28 13:48:57;;;;;;;1.02;0.73;;;3.20;1.00;;;;;;2603051;54;20894;31
2023/03/28 13:51:33;;;;;;;2.15;0.80;;;3.30;1.00;;;;;;2603786;54;20847;31
2023/03/28 13:54:11;;;;;;;2.10;1.00;;;3.40;1.00;;;;;;2622549;46;20022;31
2023/03/28 13:56:47;;;;;;;1.95;0.70;;;3.60;1.00;;;;;;2603846;54;20053;31
2023/03/28 13:59:23;;;;;;;;;;;3.60;1.00;;;;;;2622564;46;20038;31
2023/03/28 14:02:03;;;;;;;2.00;0.77;;;3.70;1.00;;;;;;2622178;46;19934;31
2023/03/28 14:04:39;;;;;;;3.03;1.02;;;3.80;1.00;;;;;;2603946;54;20901;31
2023/03/28 14:07:16;;;;;;;3.60;0.98;;;3.90;1.00;;;;;;2617189;46;20027;31
2023/03/28 14:09:52;;;;;;;1.67;0.90;;;4.00;1.00;;;;;;2603620;54;20049;31
2023/03/28 14:12:31;;;;;;;1.75;0.85;;;4.10;1.00;;;;;;2603812;54;20026;31
2023/03/28 14:15:09;;;;;;;1.42;0.95;;;4.20;1.00;;;;;;2603712;54;20772;31
2023/03/28 14:17:49;;;;;;;2.03;1.10;;;4.30;1.00;;;;;;2603786;54;20800;31
2023/03/28 14:20:26;;;;;;;2.40;1.10;;;4.30;1.00;;;;;;2603527;54;20772;31
2023/03/28 14:23:03;;;;;;;1.42;1.05;;;4.30;1.00;;;;;;2603691;54;20802;31
2023/03/28 14:25:41;;;;;;;1.88;0.90;;;4.40;1.00;;;;;;2603660;54;21381;31
2023/03/28 14:28:20;;;;;;;3.75;1.40;;;4.50;1.00;;;;;;2603522;54;20022;31
2023/03/28 14:30:57;;;;;;;1.23;0.85;;;4.60;1.00;;;;;;2603038;54;20030;31
2023/03/28 14:33:39;;;;;;;1.90;0.77;;;4.60;99.90;;;;;;2602779;54;20072;31
2023/03/28 14:36:23;;;;;;;1.70;0.80;;;4.60;1.00;;;;;;2603816;54;20053;31
2023/03/28 14:39:05;;;;;;;3.05;1.10;;;4.60;99.90;;;;;;2603672;54;20772;31
2023/03/28 14:41:41;;;;;;;1.38;0.73;;;4.60;99.90;;;;;;2603697;54;20541;31
2023/03/28 14:44:17;;;;;;;1.75;0.80;;;4.80;99.90;;;;;;2603556;54;20918;31
2023/03/28 14:46:58;;;;;;;1.85;0.93;;;4.80;1.00;;;;;;2603356;54;20822;31
2023/03/28 14:49:37;;;;;;;2.03;1.00;;;4.90;99.90;;;;;;2603550;54;20108;31
2023/03/28 14:52:15;;;;;;;6.90;1.23;;;4.90;99.90;;;;;;2622006;46;20019;31
2023/03/28 14:54:53;;;;;;;2.65;0.95;;;4.90;99.90;;;;;;2621749;46;20958;31
2023/03/28 14:57:29;;;;;;;2.15;0.93;;;4.80;99.90;;;;;;2622040;46;20797;31
2023/03/28 15:00:11;;;;;;;1.35;0.60;;;4.80;99.90;;;;;;2622252;46;20030;31
2023/03/28 15:02:48;;;;;;;0.90;0.60;;;4.80;41.80;;;;;;2603402;54;20022;31
2023/03/28 15:05:28;;;;;;;2.25;1.10;;;4.80;1.00;;;;;;2621779;46;20025;31